EDT,Max TemperatureF,Mean TemperatureF,Min TemperatureF,Max Dew PointF,MeanDew PointF,Min DewpointF,Max Humidity, Mean Humidity, Min Humidity, Max Sea Level PressureIn, Mean Sea Level PressureIn, Min Sea Level PressureIn, Max VisibilityMiles, Mean VisibilityMiles, Min VisibilityMiles, Max Wind SpeedMPH, Mean Wind SpeedMPH, Max Gust SpeedMPH,PrecipitationIn, CloudCover, Events, WindDirDegrees
2014-4-1,57,47,37,35,29,25,76,56,35,30.14,30.09,30.01,10,10,10,16,10,25,0.00,2,,289
2014-4-2,48,43,38,41,38,33,92,81,70,30.17,30.11,30.08,10,10,10,10,4,20,0.03,7,Rain,162
2014-4-3,63,51,39,41,33,22,92,57,22,30.14,30.09,30.03,10,10,8,13,6,16,0.08,6,Rain,45
2014-4-4,45,43,41,42,37,35,92,84,76,30.09,29.98,29.75,10,8,2,26,14,32,0.10,8,Rain,87
2014-4-5,57,49,41,42,32,21,93,63,32,30.08,29.85,29.73,10,8,2,33,17,39,T,5,Rain,306
2014-4-6,57,47,37,35,24,18,79,50,21,30.25,30.18,30.10,10,10,10,25,11,55,0.00,1,,248
2014-4-7,51,44,37,47,39,32,93,74,54,30.24,30.05,29.73,10,7,2,26,11,35,0.35,8,Rain,109
2014-4-8,66,57,47,55,44,31,93,65,37,29.71,29.53,29.43,10,5,0,30,14,37,0.25,7,Fog-Rain-Thunderstorm,216
2014-4-9,64,54,43,34,26,11,65,43,20,30.04,29.76,29.64,10,10,10,30,15,37,0.00,2,,318
2014-4-10,53,46,38,39,28,9,71,46,21,30.25,30.14,30.06,10,10,10,29,16,35,0.00,2,,183
2014-4-11,69,58,47,49,43,38,86,61,35,30.06,30.01,29.96,10,10,10,20,9,24,T,7,Rain,192
2014-4-12,68,59,49,50,43,34,83,56,29,30.24,30.17,30.02,10,10,10,18,8,24,0.00,4,,229
2014-4-13,65,56,47,52,48,43,89,75,60,30.22,30.12,30.00,10,10,8,31,15,38,0.00,5,,171
2014-4-14,66,59,51,54,50,48,93,77,60,30.06,29.97,29.89,10,9,0,36,23,47,0.00,6,Fog,181
2014-4-15,56,45,34,54,48,32,96,88,79,29.90,29.73,29.56,10,3,0,33,23,43,0.65,8,Fog-Rain-Snow,220
2014-4-16,49,41,32,32,19,12,64,44,23,30.58,30.28,29.93,10,10,5,31,16,37,0.08,4,Rain-Snow,341
2014-4-17,47,41,35,31,25,18,70,55,40,30.74,30.67,30.60,10,10,10,22,13,32,0.00,3,,81
2014-4-18,46,41,36,35,29,25,79,64,49,30.62,30.47,30.30,10,10,10,30,7,144,0.00,7,,113
2014-4-19,68,54,40,37,30,18,85,51,16,30.35,30.27,30.23,10,10,10,20,10,70,0.00,6,,306
2014-4-20,54,48,42,34,26,22,60,44,28,30.51,30.44,30.35,10,10,10,22,12,26,0.00,5,,85
2014-4-21,58,48,37,43,33,25,86,58,30,30.32,30.12,29.91,10,10,10,13,6,15,0.00,3,,141
2014-4-22,62,54,45,53,46,42,93,77,60,29.89,29.68,29.52,10,10,9,24,9,29,T,6,Rain,193
2014-4-23,63,54,45,48,35,27,83,59,35,29.83,29.62,29.50,10,10,10,37,23,47,0.00,5,,305
2014-4-24,64,54,43,29,14,4,53,32,10,30.03,29.90,29.84,10,10,10,31,21,41,0.00,1,,313
2014-4-25,59,51,43,41,26,15,77,50,22,30.06,29.97,29.80,10,10,10,18,10,23,T,5,Rain,119
2014-4-26,67,57,46,46,44,39,93,65,37,29.89,29.78,29.72,10,9,2,22,10,26,0.71,7,Rain,34
2014-4-27,61,54,46,44,34,30,86,60,33,30.12,29.99,29.89,10,10,10,23,14,31,0.00,4,,332
2014-4-28,66,56,45,42,35,25,74,48,22,30.15,30.09,30.02,10,10,10,22,10,25,0.00,5,,332
2014-4-29,51,48,44,41,38,36,77,69,61,30.42,30.33,30.17,10,10,10,31,20,39,0.05,8,Rain,94
2014-4-30,56,49,42,54,43,37,100,88,76,30.40,30.24,29.97,10,4,1,31,19,39,4.68,8,Rain,85